sensor_id;sensor_type;location;lat;lon;timestamp;P1;durP1;ratioP1;P2;durP2;ratioP2
17947;SDS011;9099;47.958;11.366;2023-02-22T00:00:24;1.67;;;1.00;;
17947;SDS011;9099;47.958;11.366;2023-02-22T00:03:01;2.10;;;1.10;;
17947;SDS011;9099;47.958;11.366;2023-02-22T00:05:28;1.35;;;1.13;;
17947;SDS011;9099;47.958;11.366;2023-02-22T00:07:55;1.10;;;1.00;;
17947;SDS011;9099;47.958;11.366;2023-02-22T00:10:26;0.80;;;0.80;;
17947;SDS011;9099;47.958;11.366;2023-02-22T00:12:53;1.48;;;0.98;;
17947;SDS011;9099;47.958;11.366;2023-02-22T00:15:21;0.93;;;0.90;;
17947;SDS011;9099;47.958;11.366;2023-02-22T00:17:52;2.38;;;1.10;;
17947;SDS011;9099;47.958;11.366;2023-02-22T00:20:19;1.15;;;1.00;;
17947;SDS011;9099;47.958;11.366;2023-02-22T00:22:47;1.10;;;1.00;;
17947;SDS011;9099;47.958;11.366;2023-02-22T00:25:16;1.75;;;1.05;;
17947;SDS011;9099;47.958;11.366;2023-02-22T00:27:45;1.52;;;1.20;;
17947;SDS011;9099;47.958;11.366;2023-02-22T00:30:13;2.22;;;1.33;;
17947;SDS011;9099;47.958;11.366;2023-02-22T00:32:43;1.63;;;1.00;;
17947;SDS011;9099;47.958;11.366;2023-02-22T00:35:11;1.05;;;0.85;;
17947;SDS011;9099;47.958;11.366;2023-02-22T00:37:38;0.98;;;0.90;;
17947;SDS011;9099;47.958;11.366;2023-02-22T00:40:06;1.42;;;1.27;;
17947;SDS011;9099;47.958;11.366;2023-02-22T00:42:34;1.70;;;1.20;;
17947;SDS011;9099;47.958;11.366;2023-02-22T00:45:02;1.08;;;1.00;;
17947;SDS011;9099;47.958;11.366;2023-02-22T00:47:30;1.33;;;0.98;;
17947;SDS011;9099;47.958;11.366;2023-02-22T00:49:56;1.17;;;1.05;;
17947;SDS011;9099;47.958;11.366;2023-02-22T00:52:24;1.02;;;0.98;;
17947;SDS011;9099;47.958;11.366;2023-02-22T00:54:51;1.20;;;1.10;;
17947;SDS011;9099;47.958;11.366;2023-02-22T00:57:19;1.08;;;1.00;;
17947;SDS011;9099;47.958;11.366;2023-02-22T00:59:46;0.90;;;0.90;;
17947;SDS011;9099;47.958;11.366;2023-02-22T01:02:14;1.10;;;1.00;;
17947;SDS011;9099;47.958;11.366;2023-02-22T01:04:41;1.30;;;0.98;;
17947;SDS011;9099;47.958;11.366;2023-02-22T01:07:08;1.55;;;1.00;;
17947;SDS011;9099;47.958;11.366;2023-02-22T01:09:34;1.35;;;1.13;;
17947;SDS011;9099;47.958;11.366;2023-02-22T01:12:03;0.88;;;0.88;;
17947;SDS011;9099;47.958;11.366;2023-02-22T01:14:32;1.38;;;1.05;;
17947;SDS011;9099;47.958;11.366;2023-02-22T01:16:59;1.08;;;0.98;;
17947;SDS011;9099;47.958;11.366;2023-02-22T01:19:27;1.23;;;1.00;;
17947;SDS011;9099;47.958;11.366;2023-02-22T01:21:56;1.30;;;1.10;;
17947;SDS011;9099;47.958;11.366;2023-02-22T01:24:23;1.13;;;1.02;;
17947;SDS011;9099;47.958;11.366;2023-02-22T01:26:50;1.30;;;1.20;;
17947;SDS011;9099;47.958;11.366;2023-02-22T01:29:17;1.20;;;0.85;;
17947;SDS011;9099;47.958;11.366;2023-02-22T01:31:49;1.15;;;1.05;;
17947;SDS011;9099;47.958;11.366;2023-02-22T01:34:18;1.33;;;1.23;;
17947;SDS011;9099;47.958;11.366;2023-02-22T01:36:47;0.82;;;0.82;;
17947;SDS011;9099;47.958;11.366;2023-02-22T01:39:14;1.15;;;1.00;;
17947;SDS011;9099;47.958;11.366;2023-02-22T01:41:42;1.10;;;1.00;;
17947;SDS011;9099;47.958;11.366;2023-02-22T01:44:16;0.70;;;0.70;;
17947;SDS011;9099;47.958;11.366;2023-02-22T01:46:46;0.90;;;0.90;;
17947;SDS011;9099;47.958;11.366;2023-02-22T01:49:13;2.08;;;0.77;;
17947;SDS011;9099;47.958;11.366;2023-02-22T01:51:41;1.00;;;0.90;;
17947;SDS011;9099;47.958;11.366;2023-02-22T01:54:13;0.70;;;0.70;;
17947;SDS011;9099;47.958;11.366;2023-02-22T01:56:44;0.88;;;0.88;;
17947;SDS011;9099;47.958;11.366;2023-02-22T01:59:15;0.80;;;0.80;;
17947;SDS011;9099;47.958;11.366;2023-02-22T02:01:43;1.00;;;0.85;;
17947;SDS011;9099;47.958;11.366;2023-02-22T02:04:12;0.85;;;0.85;;
17947;SDS011;9099;47.958;11.366;2023-02-22T02:06:41;0.93;;;0.90;;
17947;SDS011;9099;47.958;11.366;2023-02-22T02:09:09;1.95;;;1.05;;
17947;SDS011;9099;47.958;11.366;2023-02-22T02:11:41;0.82;;;0.82;;
17947;SDS011;9099;47.958;11.366;2023-02-22T02:14:09;0.85;;;0.80;;
17947;SDS011;9099;47.958;11.366;2023-02-22T02:16:37;1.10;;;0.82;;
17947;SDS011;9099;47.958;11.366;2023-02-22T02:19:08;1.17;;;0.90;;
17947;SDS011;9099;47.958;11.366;2023-02-22T02:21:43;0.80;;;0.80;;
17947;SDS011;9099;47.958;11.366;2023-02-22T02:27:24;0.90;;;0.90;;
17947;SDS011;9099;47.958;11.366;2023-02-22T02:30:02;1.20;;;0.90;;
17947;SDS011;9099;47.958;11.366;2023-02-22T02:32:55;1.10;;;1.00;;
17947;SDS011;9099;47.958;11.366;2023-02-22T02:35:27;1.33;;;1.00;;
17947;SDS011;9099;47.958;11.366;2023-02-22T02:38:04;0.90;;;0.90;;
17947;SDS011;9099;47.958;11.366;2023-02-22T02:40:38;1.23;;;1.13;;
17947;SDS011;9099;47.958;11.366;2023-02-22T02:43:11;1.50;;;0.90;;
17947;SDS011;9099;47.958;11.366;2023-02-22T02:45:44;1.00;;;0.90;;
17947;SDS011;9099;47.958;11.366;2023-02-22T02:48:16;1.65;;;1.10;;
17947;SDS011;9099;47.958;11.366;2023-02-22T02:50:47;1.10;;;0.70;;
17947;SDS011;9099;47.958;11.366;2023-02-22T02:53:18;1.08;;;0.70;;
17947;SDS011;9099;47.958;11.366;2023-02-22T02:55:47;1.33;;;0.70;;
17947;SDS011;9099;47.958;11.366;2023-02-22T02:58:18;0.75;;;0.70;;
17947;SDS011;9099;47.958;11.366;2023-02-22T03:00:47;0.75;;;0.75;;
17947;SDS011;9099;47.958;11.366;2023-02-22T03:03:21;1.02;;;0.77;;
17947;SDS011;9099;47.958;11.366;2023-02-22T03:06:20;0.95;;;0.80;;
17947;SDS011;9099;47.958;11.366;2023-02-22T03:09:05;0.80;;;0.65;;
17947;SDS011;9099;47.958;11.366;2023-02-22T03:11:41;3.03;;;0.80;;
17947;SDS011;9099;47.958;11.366;2023-02-22T03:14:15;0.82;;;0.82;;
17947;SDS011;9099;47.958;11.366;2023-02-22T03:16:51;1.00;;;0.90;;
17947;SDS011;9099;47.958;11.366;2023-02-22T03:19:25;1.00;;;0.73;;
17947;SDS011;9099;47.958;11.366;2023-02-22T03:21:56;0.52;;;0.52;;
17947;SDS011;9099;47.958;11.366;2023-02-22T03:24:29;0.95;;;0.80;;
17947;SDS011;9099;47.958;11.366;2023-02-22T03:27:00;0.80;;;0.80;;
17947;SDS011;9099;47.958;11.366;2023-02-22T03:29:33;1.17;;;1.02;;
17947;SDS011;9099;47.958;11.366;2023-02-22T03:32:06;1.33;;;0.95;;
17947;SDS011;9099;47.958;11.366;2023-02-22T03:34:37;0.77;;;0.70;;
17947;SDS011;9099;47.958;11.366;2023-02-22T03:37:10;0.80;;;0.80;;
17947;SDS011;9099;47.958;11.366;2023-02-22T03:39:40;0.93;;;0.88;;
17947;SDS011;9099;47.958;11.366;2023-02-22T03:42:09;1.25;;;1.00;;
17947;SDS011;9099;47.958;11.366;2023-02-22T03:44:40;1.13;;;1.02;;
17947;SDS011;9099;47.958;11.366;2023-02-22T03:47:10;0.77;;;0.77;;
17947;SDS011;9099;47.958;11.366;2023-02-22T03:49:43;0.80;;;0.80;;
17947;SDS011;9099;47.958;11.366;2023-02-22T03:52:14;1.92;;;1.02;;
17947;SDS011;9099;47.958;11.366;2023-02-22T03:54:41;1.17;;;1.08;;
17947;SDS011;9099;47.958;11.366;2023-02-22T03:57:10;1.08;;;1.00;;
17947;SDS011;9099;47.958;11.366;2023-02-22T03:59:40;1.23;;;1.08;;
17947;SDS011;9099;47.958;11.366;2023-02-22T04:02:08;2.35;;;1.20;;
17947;SDS011;9099;47.958;11.366;2023-02-22T04:04:34;1.20;;;0.90;;
17947;SDS011;9099;47.958;11.366;2023-02-22T04:07:02;2.38;;;1.20;;
17947;SDS011;9099;47.958;11.366;2023-02-22T04:09:29;2.17;;;1.27;;
17947;SDS011;9099;47.958;11.366;2023-02-22T04:11:56;1.20;;;1.10;;
17947;SDS011;9099;47.958;11.366;2023-02-22T04:14:23;1.13;;;1.02;;
17947;SDS011;9099;47.958;11.366;2023-02-22T04:16:50;1.52;;;1.10;;
17947;SDS011;9099;47.958;11.366;2023-02-22T04:19:17;1.10;;;1.05;;
17947;SDS011;9099;47.958;11.366;2023-02-22T04:21:44;1.55;;;1.02;;
17947;SDS011;9099;47.958;11.366;2023-02-22T04:24:12;1.67;;;1.08;;
17947;SDS011;9099;47.958;11.366;2023-02-22T04:26:39;1.10;;;1.00;;
17947;SDS011;9099;47.958;11.366;2023-02-22T04:29:06;1.58;;;1.48;;
17947;SDS011;9099;47.958;11.366;2023-02-22T04:31:33;3.80;;;1.50;;
17947;SDS011;9099;47.958;11.366;2023-02-22T04:34:00;1.52;;;1.13;;
17947;SDS011;9099;47.958;11.366;2023-02-22T04:36:27;1.40;;;1.30;;
17947;SDS011;9099;47.958;11.366;2023-02-22T04:38:55;2.38;;;1.15;;
17947;SDS011;9099;47.958;11.366;2023-02-22T04:41:24;1.20;;;1.10;;
17947;SDS011;9099;47.958;11.366;2023-02-22T04:43:50;2.53;;;1.17;;
17947;SDS011;9099;47.958;11.366;2023-02-22T04:46:17;1.13;;;0.90;;
17947;SDS011;9099;47.958;11.366;2023-02-22T04:48:44;1.17;;;1.08;;
17947;SDS011;9099;47.958;11.366;2023-02-22T04:51:11;1.90;;;1.17;;
17947;SDS011;9099;47.958;11.366;2023-02-22T04:53:38;1.45;;;1.02;;
17947;SDS011;9099;47.958;11.366;2023-02-22T04:56:05;1.23;;;1.02;;
17947;SDS011;9099;47.958;11.366;2023-02-22T04:58:33;2.47;;;1.00;;
17947;SDS011;9099;47.958;11.366;2023-02-22T05:01:00;1.73;;;0.90;;
17947;SDS011;9099;47.958;11.366;2023-02-22T05:03:27;1.67;;;1.17;;
17947;SDS011;9099;47.958;11.366;2023-02-22T05:05:54;1.35;;;0.98;;
17947;SDS011;9099;47.958;11.366;2023-02-22T05:08:21;0.93;;;0.93;;
17947;SDS011;9099;47.958;11.366;2023-02-22T05:10:47;1.10;;;1.05;;
17947;SDS011;9099;47.958;11.366;2023-02-22T05:13:14;1.30;;;1.10;;
17947;SDS011;9099;47.958;11.366;2023-02-22T05:15:42;1.27;;;1.17;;
17947;SDS011;9099;47.958;11.366;2023-02-22T05:18:09;1.60;;;1.40;;
17947;SDS011;9099;47.958;11.366;2023-02-22T05:20:36;2.93;;;1.30;;
17947;SDS011;9099;47.958;11.366;2023-02-22T05:23:03;2.10;;;1.17;;
17947;SDS011;9099;47.958;11.366;2023-02-22T05:25:30;1.20;;;1.10;;
17947;SDS011;9099;47.958;11.366;2023-02-22T05:27:59;1.23;;;1.13;;
17947;SDS011;9099;47.958;11.366;2023-02-22T05:30:28;2.03;;;1.37;;
17947;SDS011;9099;47.958;11.366;2023-02-22T05:32:57;1.30;;;1.17;;
17947;SDS011;9099;47.958;11.366;2023-02-22T05:35:25;1.70;;;1.00;;
17947;SDS011;9099;47.958;11.366;2023-02-22T05:37:52;1.20;;;1.10;;
17947;SDS011;9099;47.958;11.366;2023-02-22T05:40:21;1.17;;;1.00;;
17947;SDS011;9099;47.958;11.366;2023-02-22T05:42:50;1.30;;;1.20;;
17947;SDS011;9099;47.958;11.366;2023-02-22T05:45:19;1.00;;;0.90;;
17947;SDS011;9099;47.958;11.366;2023-02-22T05:47:47;1.10;;;1.10;;
17947;SDS011;9099;47.958;11.366;2023-02-22T05:50:16;1.35;;;1.20;;
17947;SDS011;9099;47.958;11.366;2023-02-22T05:52:44;1.20;;;1.10;;
17947;SDS011;9099;47.958;11.366;2023-02-22T05:55:13;1.40;;;1.30;;
17947;SDS011;9099;47.958;11.366;2023-02-22T05:57:42;1.20;;;1.10;;
17947;SDS011;9099;47.958;11.366;2023-02-22T06:00:09;1.97;;;1.20;;
17947;SDS011;9099;47.958;11.366;2023-02-22T06:02:40;1.57;;;1.30;;
17947;SDS011;9099;47.958;11.366;2023-02-22T06:05:07;1.10;;;1.00;;
17947;SDS011;9099;47.958;11.366;2023-02-22T06:07:35;1.30;;;1.20;;
17947;SDS011;9099;47.958;11.366;2023-02-22T06:10:02;2.67;;;1.38;;
17947;SDS011;9099;47.958;11.366;2023-02-22T06:12:29;1.53;;;1.23;;
17947;SDS011;9099;47.958;11.366;2023-02-22T06:14:56;2.23;;;1.10;;
17947;SDS011;9099;47.958;11.366;2023-02-22T06:17:23;1.10;;;0.90;;
17947;SDS011;9099;47.958;11.366;2023-02-22T06:19:49;2.00;;;1.07;;
17947;SDS011;9099;47.958;11.366;2023-02-22T06:22:16;2.10;;;1.40;;
17947;SDS011;9099;47.958;11.366;2023-02-22T06:24:46;1.40;;;1.00;;
17947;SDS011;9099;47.958;11.366;2023-02-22T06:27:13;2.42;;;1.05;;
17947;SDS011;9099;47.958;11.366;2023-02-22T06:29:39;1.13;;;0.90;;
17947;SDS011;9099;47.958;11.366;2023-02-22T06:32:10;1.10;;;1.00;;
17947;SDS011;9099;47.958;11.366;2023-02-22T06:34:37;3.15;;;1.23;;
17947;SDS011;9099;47.958;11.366;2023-02-22T06:37:05;1.38;;;1.27;;
17947;SDS011;9099;47.958;11.366;2023-02-22T06:39:32;1.10;;;1.00;;
17947;SDS011;9099;47.958;11.366;2023-02-22T06:42:00;1.05;;;0.95;;
17947;SDS011;9099;47.958;11.366;2023-02-22T06:44:27;1.50;;;1.10;;
17947;SDS011;9099;47.958;11.366;2023-02-22T06:46:54;1.20;;;1.13;;
17947;SDS011;9099;47.958;11.366;2023-02-22T06:49:20;1.73;;;1.30;;
17947;SDS011;9099;47.958;11.366;2023-02-22T06:51:47;1.77;;;1.10;;
17947;SDS011;9099;47.958;11.366;2023-02-22T06:54:14;1.40;;;1.20;;
17947;SDS011;9099;47.958;11.366;2023-02-22T06:56:41;2.25;;;1.17;;
17947;SDS011;9099;47.958;11.366;2023-02-22T06:59:09;1.38;;;1.27;;
17947;SDS011;9099;47.958;11.366;2023-02-22T07:01:36;1.38;;;1.27;;
17947;SDS011;9099;47.958;11.366;2023-02-22T07:04:05;2.05;;;1.40;;
17947;SDS011;9099;47.958;11.366;2023-02-22T07:06:32;1.50;;;1.40;;
17947;SDS011;9099;47.958;11.366;2023-02-22T07:08:58;1.55;;;1.40;;
17947;SDS011;9099;47.958;11.366;2023-02-22T07:11:25;1.90;;;1.75;;
17947;SDS011;9099;47.958;11.366;2023-02-22T07:13:52;1.60;;;1.02;;
17947;SDS011;9099;47.958;11.366;2023-02-22T07:16:20;1.58;;;1.30;;
17947;SDS011;9099;47.958;11.366;2023-02-22T07:18:47;1.73;;;1.42;;
17947;SDS011;9099;47.958;11.366;2023-02-22T07:21:14;1.92;;;1.83;;
17947;SDS011;9099;47.958;11.366;2023-02-22T07:23:48;1.95;;;1.08;;
17947;SDS011;9099;47.958;11.366;2023-02-22T07:26:16;1.38;;;1.27;;
17947;SDS011;9099;47.958;11.366;2023-02-22T07:28:43;2.10;;;1.27;;
17947;SDS011;9099;47.958;11.366;2023-02-22T07:31:09;1.83;;;1.20;;
17947;SDS011;9099;47.958;11.366;2023-02-22T07:33:38;1.52;;;1.30;;
17947;SDS011;9099;47.958;11.366;2023-02-22T07:36:05;1.67;;;1.45;;
17947;SDS011;9099;47.958;11.366;2023-02-22T07:38:32;1.95;;;1.50;;
17947;SDS011;9099;47.958;11.366;2023-02-22T07:40:59;2.28;;;1.40;;
17947;SDS011;9099;47.958;11.366;2023-02-22T07:43:26;1.80;;;1.33;;
17947;SDS011;9099;47.958;11.366;2023-02-22T07:45:55;2.28;;;1.48;;
17947;SDS011;9099;47.958;11.366;2023-02-22T07:48:25;1.60;;;1.50;;
17947;SDS011;9099;47.958;11.366;2023-02-22T07:50:54;1.50;;;1.38;;
17947;SDS011;9099;47.958;11.366;2023-02-22T07:53:23;2.17;;;1.70;;
17947;SDS011;9099;47.958;11.366;2023-02-22T07:55:51;2.20;;;1.40;;
17947;SDS011;9099;47.958;11.366;2023-02-22T07:58:20;3.58;;;1.40;;
17947;SDS011;9099;47.958;11.366;2023-02-22T08:00:48;1.23;;;1.10;;
17947;SDS011;9099;47.958;11.366;2023-02-22T08:03:15;1.65;;;1.40;;
17947;SDS011;9099;47.958;11.366;2023-02-22T08:05:43;1.40;;;1.30;;
17947;SDS011;9099;47.958;11.366;2023-02-22T08:08:13;2.08;;;1.65;;
17947;SDS011;9099;47.958;11.366;2023-02-22T08:10:40;2.95;;;1.60;;
17947;SDS011;9099;47.958;11.366;2023-02-22T08:13:08;2.08;;;1.60;;
17947;SDS011;9099;47.958;11.366;2023-02-22T08:15:36;2.78;;;1.63;;
17947;SDS011;9099;47.958;11.366;2023-02-22T08:18:04;14.57;;;2.72;;
17947;SDS011;9099;47.958;11.366;2023-02-22T08:20:33;1.95;;;1.75;;
17947;SDS011;9099;47.958;11.366;2023-02-22T08:23:01;2.28;;;1.80;;
17947;SDS011;9099;47.958;11.366;2023-02-22T08:25:30;1.83;;;1.70;;
17947;SDS011;9099;47.958;11.366;2023-02-22T08:27:57;2.33;;;2.10;;
17947;SDS011;9099;47.958;11.366;2023-02-22T08:30:25;2.35;;;2.03;;
17947;SDS011;9099;47.958;11.366;2023-02-22T08:32:53;2.03;;;1.70;;
17947;SDS011;9099;47.958;11.366;2023-02-22T08:35:21;3.25;;;1.80;;
17947;SDS011;9099;47.958;11.366;2023-02-22T08:37:49;1.65;;;1.40;;
17947;SDS011;9099;47.958;11.366;2023-02-22T08:40:18;2.05;;;1.70;;
17947;SDS011;9099;47.958;11.366;2023-02-22T08:42:48;1.90;;;1.70;;
17947;SDS011;9099;47.958;11.366;2023-02-22T08:45:16;2.10;;;2.00;;
17947;SDS011;9099;47.958;11.366;2023-02-22T08:47:44;2.83;;;2.13;;
17947;SDS011;9099;47.958;11.366;2023-02-22T08:50:14;1.88;;;1.70;;
17947;SDS011;9099;47.958;11.366;2023-02-22T08:52:43;2.00;;;1.90;;
17947;SDS011;9099;47.958;11.366;2023-02-22T08:55:10;2.28;;;1.80;;
17947;SDS011;9099;47.958;11.366;2023-02-22T08:57:37;2.40;;;1.77;;
17947;SDS011;9099;47.958;11.366;2023-02-22T09:00:06;2.20;;;1.90;;
17947;SDS011;9099;47.958;11.366;2023-02-22T09:02:33;1.67;;;1.58;;
17947;SDS011;9099;47.958;11.366;2023-02-22T09:05:00;2.47;;;1.52;;
17947;SDS011;9099;47.958;11.366;2023-02-22T09:07:29;3.33;;;2.20;;
17947;SDS011;9099;47.958;11.366;2023-02-22T09:09:56;2.67;;;1.55;;
17947;SDS011;9099;47.958;11.366;2023-02-22T09:12:22;1.15;;;1.05;;
17947;SDS011;9099;47.958;11.366;2023-02-22T09:14:49;1.15;;;1.10;;
17947;SDS011;9099;47.958;11.366;2023-02-22T09:17:17;1.42;;;0.93;;
17947;SDS011;9099;47.958;11.366;2023-02-22T09:19:44;1.27;;;1.17;;
17947;SDS011;9099;47.958;11.366;2023-02-22T09:22:11;1.35;;;1.20;;
17947;SDS011;9099;47.958;11.366;2023-02-22T09:24:38;2.38;;;1.30;;
17947;SDS011;9099;47.958;11.366;2023-02-22T09:27:07;1.20;;;1.10;;
17947;SDS011;9099;47.958;11.366;2023-02-22T09:29:36;2.50;;;1.15;;
17947;SDS011;9099;47.958;11.366;2023-02-22T09:32:03;1.25;;;1.15;;
17947;SDS011;9099;47.958;11.366;2023-02-22T09:34:32;1.20;;;1.10;;
17947;SDS011;9099;47.958;11.366;2023-02-22T09:36:59;1.50;;;1.40;;
17947;SDS011;9099;47.958;11.366;2023-02-22T09:39:26;2.25;;;1.50;;
17947;SDS011;9099;47.958;11.366;2023-02-22T09:41:55;1.42;;;1.33;;
17947;SDS011;9099;47.958;11.366;2023-02-22T09:44:31;2.15;;;1.30;;
17947;SDS011;9099;47.958;11.366;2023-02-22T09:47:01;2.28;;;1.40;;
17947;SDS011;9099;47.958;11.366;2023-02-22T09:49:36;1.50;;;1.40;;
17947;SDS011;9099;47.958;11.366;2023-02-22T09:52:12;1.00;;;1.00;;
17947;SDS011;9099;47.958;11.366;2023-02-22T09:54:44;1.48;;;1.25;;
17947;SDS011;9099;47.958;11.366;2023-02-22T09:57:21;1.30;;;1.10;;
17947;SDS011;9099;47.958;11.366;2023-02-22T09:59:56;2.17;;;1.30;;
17947;SDS011;9099;47.958;11.366;2023-02-22T10:02:37;1.58;;;1.45;;
17947;SDS011;9099;47.958;11.366;2023-02-22T10:05:11;1.20;;;1.10;;
17947;SDS011;9099;47.958;11.366;2023-02-22T10:07:45;1.00;;;0.90;;
17947;SDS011;9099;47.958;11.366;2023-02-22T10:10:17;1.20;;;1.10;;
17947;SDS011;9099;47.958;11.366;2023-02-22T10:12:47;1.58;;;1.20;;
17947;SDS011;9099;47.958;11.366;2023-02-22T10:18:18;1.75;;;1.00;;
17947;SDS011;9099;47.958;11.366;2023-02-22T10:21:08;1.83;;;1.23;;
17947;SDS011;9099;47.958;11.366;2023-02-22T10:23:44;2.13;;;1.30;;
17947;SDS011;9099;47.958;11.366;2023-02-22T10:26:19;1.08;;;1.00;;
17947;SDS011;9099;47.958;11.366;2023-02-22T10:28:51;1.30;;;1.10;;
17947;SDS011;9099;47.958;11.366;2023-02-22T10:31:22;1.25;;;1.10;;
17947;SDS011;9099;47.958;11.366;2023-02-22T10:33:54;1.27;;;0.90;;
17947;SDS011;9099;47.958;11.366;2023-02-22T10:36:26;1.55;;;1.05;;
17947;SDS011;9099;47.958;11.366;2023-02-22T10:38:54;1.20;;;1.10;;
17947;SDS011;9099;47.958;11.366;2023-02-22T10:41:25;1.20;;;1.20;;
17947;SDS011;9099;47.958;11.366;2023-02-22T10:43:55;1.50;;;1.10;;
17947;SDS011;9099;47.958;11.366;2023-02-22T10:46:22;1.55;;;0.98;;
17947;SDS011;9099;47.958;11.366;2023-02-22T10:48:53;1.13;;;1.13;;
17947;SDS011;9099;47.958;11.366;2023-02-22T10:51:28;1.33;;;1.23;;
17947;SDS011;9099;47.958;11.366;2023-02-22T10:53:57;1.40;;;1.20;;
17947;SDS011;9099;47.958;11.366;2023-02-22T10:56:30;1.00;;;0.90;;
17947;SDS011;9099;47.958;11.366;2023-02-22T10:58:58;1.40;;;1.17;;
17947;SDS011;9099;47.958;11.366;2023-02-22T11:01:32;1.70;;;1.00;;
17947;SDS011;9099;47.958;11.366;2023-02-22T11:04:04;1.10;;;1.10;;
17947;SDS011;9099;47.958;11.366;2023-02-22T11:06:38;1.70;;;0.98;;
17947;SDS011;9099;47.958;11.366;2023-02-22T11:09:08;1.42;;;1.08;;
17947;SDS011;9099;47.958;11.366;2023-02-22T11:11:37;2.13;;;1.33;;
17947;SDS011;9099;47.958;11.366;2023-02-22T11:14:06;1.17;;;0.93;;
17947;SDS011;9099;47.958;11.366;2023-02-22T11:16:35;1.25;;;1.20;;
17947;SDS011;9099;47.958;11.366;2023-02-22T11:19:06;1.45;;;1.35;;
17947;SDS011;9099;47.958;11.366;2023-02-22T11:21:45;1.67;;;1.00;;
17947;SDS011;9099;47.958;11.366;2023-02-22T11:24:15;1.50;;;1.40;;
17947;SDS011;9099;47.958;11.366;2023-02-22T11:26:45;1.10;;;0.95;;
17947;SDS011;9099;47.958;11.366;2023-02-22T11:29:18;1.00;;;0.98;;
17947;SDS011;9099;47.958;11.366;2023-02-22T11:31:48;1.02;;;0.98;;
17947;SDS011;9099;47.958;11.366;2023-02-22T11:34:29;0.70;;;0.70;;
17947;SDS011;9099;47.958;11.366;2023-02-22T11:39:42;1.00;;;0.82;;
17947;SDS011;9099;47.958;11.366;2023-02-22T11:42:17;0.90;;;0.80;;
17947;SDS011;9099;47.958;11.366;2023-02-22T11:44:47;0.93;;;0.93;;
17947;SDS011;9099;47.958;11.366;2023-02-22T11:47:15;1.20;;;1.15;;
17947;SDS011;9099;47.958;11.366;2023-02-22T11:49:43;1.35;;;1.25;;
17947;SDS011;9099;47.958;11.366;2023-02-22T11:52:15;1.30;;;1.25;;
17947;SDS011;9099;47.958;11.366;2023-02-22T11:57:48;1.85;;;1.20;;
17947;SDS011;9099;47.958;11.366;2023-02-22T12:00:26;1.00;;;1.00;;
17947;SDS011;9099;47.958;11.366;2023-02-22T12:03:09;1.67;;;1.20;;
17947;SDS011;9099;47.958;11.366;2023-02-22T12:06:05;1.35;;;1.10;;
17947;SDS011;9099;47.958;11.366;2023-02-22T12:08:47;2.42;;;1.08;;
17947;SDS011;9099;47.958;11.366;2023-02-22T12:11:24;1.25;;;1.10;;
17947;SDS011;9099;47.958;11.366;2023-02-22T12:14:02;1.33;;;1.23;;
17947;SDS011;9099;47.958;11.366;2023-02-22T12:16:44;1.48;;;1.02;;
17947;SDS011;9099;47.958;11.366;2023-02-22T12:19:26;1.08;;;1.00;;
17947;SDS011;9099;47.958;11.366;2023-02-22T12:22:01;3.08;;;1.30;;
17947;SDS011;9099;47.958;11.366;2023-02-22T12:24:35;1.38;;;1.27;;
17947;SDS011;9099;47.958;11.366;2023-02-22T12:27:05;3.42;;;1.20;;
17947;SDS011;9099;47.958;11.366;2023-02-22T12:29:36;1.02;;;0.90;;
17947;SDS011;9099;47.958;11.366;2023-02-22T12:32:10;1.35;;;1.00;;
17947;SDS011;9099;47.958;11.366;2023-02-22T12:34:42;1.10;;;0.98;;
17947;SDS011;9099;47.958;11.366;2023-02-22T12:37:15;1.13;;;0.98;;
17947;SDS011;9099;47.958;11.366;2023-02-22T12:39:54;1.10;;;1.00;;
17947;SDS011;9099;47.958;11.366;2023-02-22T12:42:27;1.30;;;0.90;;
17947;SDS011;9099;47.958;11.366;2023-02-22T12:44:59;1.10;;;0.88;;
17947;SDS011;9099;47.958;11.366;2023-02-22T12:47:33;1.17;;;1.08;;
17947;SDS011;9099;47.958;11.366;2023-02-22T12:50:09;1.40;;;1.00;;
17947;SDS011;9099;47.958;11.366;2023-02-22T12:52:44;1.75;;;1.02;;
17947;SDS011;9099;47.958;11.366;2023-02-22T12:55:17;1.65;;;1.00;;
17947;SDS011;9099;47.958;11.366;2023-02-22T12:57:49;0.90;;;0.90;;
17947;SDS011;9099;47.958;11.366;2023-02-22T13:00:21;1.13;;;1.00;;
17947;SDS011;9099;47.958;11.366;2023-02-22T13:02:57;1.25;;;0.80;;
17947;SDS011;9099;47.958;11.366;2023-02-22T13:05:27;1.52;;;1.10;;
17947;SDS011;9099;47.958;11.366;2023-02-22T13:08:01;1.25;;;1.05;;
17947;SDS011;9099;47.958;11.366;2023-02-22T13:10:54;1.30;;;1.20;;
17947;SDS011;9099;47.958;11.366;2023-02-22T13:13:27;1.50;;;1.20;;
17947;SDS011;9099;47.958;11.366;2023-02-22T13:16:01;1.45;;;1.02;;
17947;SDS011;9099;47.958;11.366;2023-02-22T13:18:36;1.23;;;1.10;;
17947;SDS011;9099;47.958;11.366;2023-02-22T13:21:10;1.27;;;1.23;;
17947;SDS011;9099;47.958;11.366;2023-02-22T13:23:42;1.10;;;1.00;;
17947;SDS011;9099;47.958;11.366;2023-02-22T13:26:17;1.80;;;1.10;;
17947;SDS011;9099;47.958;11.366;2023-02-22T13:28:49;1.00;;;1.00;;
17947;SDS011;9099;47.958;11.366;2023-02-22T13:31:23;0.98;;;0.98;;
17947;SDS011;9099;47.958;11.366;2023-02-22T13:34:04;1.30;;;1.10;;
17947;SDS011;9099;47.958;11.366;2023-02-22T13:36:48;2.83;;;1.33;;
17947;SDS011;9099;47.958;11.366;2023-02-22T13:39:38;2.03;;;1.25;;
17947;SDS011;9099;47.958;11.366;2023-02-22T13:42:37;1.17;;;1.08;;
17947;SDS011;9099;47.958;11.366;2023-02-22T13:48:32;0.73;;;0.73;;
17947;SDS011;9099;47.958;11.366;2023-02-22T13:51:30;1.00;;;1.00;;
17947;SDS011;9099;47.958;11.366;2023-02-22T13:54:06;2.25;;;0.93;;
17947;SDS011;9099;47.958;11.366;2023-02-22T13:56:35;1.33;;;0.90;;
17947;SDS011;9099;47.958;11.366;2023-02-22T13:59:20;2.05;;;0.98;;
17947;SDS011;9099;47.958;11.366;2023-02-22T14:01:52;2.30;;;1.13;;
17947;SDS011;9099;47.958;11.366;2023-02-22T14:13:14;0.80;;;0.80;;
17947;SDS011;9099;47.958;11.366;2023-02-22T14:18:46;4.28;;;1.10;;
17947;SDS011;9099;47.958;11.366;2023-02-22T14:21:16;1.90;;;0.90;;
17947;SDS011;9099;47.958;11.366;2023-02-22T14:23:44;2.03;;;1.10;;
17947;SDS011;9099;47.958;11.366;2023-02-22T14:26:14;1.45;;;1.30;;
17947;SDS011;9099;47.958;11.366;2023-02-22T14:28:52;1.40;;;1.30;;
17947;SDS011;9099;47.958;11.366;2023-02-22T14:31:23;1.70;;;1.60;;
17947;SDS011;9099;47.958;11.366;2023-02-22T14:33:55;1.88;;;1.55;;
17947;SDS011;9099;47.958;11.366;2023-02-22T14:36:25;2.03;;;1.80;;
17947;SDS011;9099;47.958;11.366;2023-02-22T14:38:55;2.15;;;1.83;;
17947;SDS011;9099;47.958;11.366;2023-02-22T14:41:28;2.67;;;1.85;;
17947;SDS011;9099;47.958;11.366;2023-02-22T14:43:56;2.08;;;1.90;;
17947;SDS011;9099;47.958;11.366;2023-02-22T14:46:26;3.03;;;1.92;;
17947;SDS011;9099;47.958;11.366;2023-02-22T14:48:57;4.82;;;2.10;;
17947;SDS011;9099;47.958;11.366;2023-02-22T14:51:30;2.85;;;2.00;;
17947;SDS011;9099;47.958;11.366;2023-02-22T14:54:05;4.25;;;1.90;;
17947;SDS011;9099;47.958;11.366;2023-02-22T14:56:37;3.78;;;2.00;;
17947;SDS011;9099;47.958;11.366;2023-02-22T14:59:12;3.08;;;2.20;;
17947;SDS011;9099;47.958;11.366;2023-02-22T15:01:43;3.15;;;1.98;;
17947;SDS011;9099;47.958;11.366;2023-02-22T15:04:15;3.33;;;2.40;;
17947;SDS011;9099;47.958;11.366;2023-02-22T15:06:43;3.28;;;2.15;;
17947;SDS011;9099;47.958;11.366;2023-02-22T15:09:11;2.60;;;2.40;;
17947;SDS011;9099;47.958;11.366;2023-02-22T15:11:47;5.15;;;2.65;;
17947;SDS011;9099;47.958;11.366;2023-02-22T15:14:16;3.15;;;2.42;;
17947;SDS011;9099;47.958;11.366;2023-02-22T15:16:47;2.50;;;2.10;;
17947;SDS011;9099;47.958;11.366;2023-02-22T15:19:16;2.72;;;2.20;;
17947;SDS011;9099;47.958;11.366;2023-02-22T15:21:51;2.50;;;2.30;;
17947;SDS011;9099;47.958;11.366;2023-02-22T15:24:20;2.80;;;2.60;;
17947;SDS011;9099;47.958;11.366;2023-02-22T15:26:50;3.55;;;2.65;;
17947;SDS011;9099;47.958;11.366;2023-02-22T15:29:18;2.67;;;2.47;;
17947;SDS011;9099;47.958;11.366;2023-02-22T15:31:50;2.72;;;2.53;;
17947;SDS011;9099;47.958;11.366;2023-02-22T15:34:23;3.85;;;2.88;;